Time,TemperatureF,DewpointF,PressureIn,WindDirection,WindDirectionDegrees,WindSpeedMPH,WindSpeedGustMPH,Humidity,HourlyPrecipIn,Conditions,Clouds,dailyrainin,SoftwareType,DateUTC
2013-04-20 00:00:00,48.1,34.0,30.16,ENE,57,0.0,10.0,58,0.00,,,0.00,Wunderground v.1.15,2013-04-20 05:00:00,
2013-04-20 00:10:00,47.6,34.0,30.16,ENE,57,0.0,10.0,59,0.00,,,0.00,Wunderground v.1.15,2013-04-20 05:10:00,
2013-04-20 00:20:00,47.5,33.0,30.16,ENE,57,0.0,10.0,57,0.00,,,0.00,Wunderground v.1.15,2013-04-20 05:20:00,
2013-04-20 00:30:00,47.4,32.9,30.16,ENE,57,0.0,10.0,57,0.00,,,0.00,Wunderground v.1.15,2013-04-20 05:30:00,
2013-04-20 00:40:00,47.3,33.3,30.15,ENE,57,0.0,10.0,58,0.00,,,0.00,Wunderground v.1.15,2013-04-20 05:40:00,
2013-04-20 00:50:00,46.8,32.8,30.15,ENE,57,0.0,10.0,58,0.00,,,0.00,Wunderground v.1.15,2013-04-20 05:50:00,
2013-04-20 01:00:00,46.3,32.7,30.16,ENE,57,0.0,10.0,59,0.00,,,0.00,Wunderground v.1.15,2013-04-20 06:00:00,
2013-04-20 01:10:00,45.9,32.8,30.15,ENE,57,0.0,10.0,60,0.00,,,0.00,Wunderground v.1.15,2013-04-20 06:10:00,
2013-04-20 01:20:00,45.7,33.0,30.15,ENE,57,0.0,10.0,61,0.00,,,0.00,Wunderground v.1.15,2013-04-20 06:20:00,
2013-04-20 01:30:00,45.5,32.8,30.15,ENE,57,0.0,10.0,61,0.00,,,0.00,Wunderground v.1.15,2013-04-20 06:30:00,
2013-04-20 01:40:00,45.2,32.5,30.15,ENE,59,0.0,10.0,61,0.00,,,0.00,Wunderground v.1.15,2013-04-20 06:40:00,
2013-04-20 01:50:00,45.3,33.0,30.14,ENE,71,1.0,1.0,62,0.00,,,0.00,Wunderground v.1.15,2013-04-20 06:50:00,
2013-04-20 02:00:00,45.3,32.2,30.14,ENE,74,0.0,10.0,60,0.00,,,0.00,Wunderground v.1.15,2013-04-20 07:00:00,
2013-04-20 02:10:00,45.7,32.2,30.15,East,82,1.0,1.0,59,0.00,,,0.00,Wunderground v.1.15,2013-04-20 07:10:00,
2013-04-20 02:20:00,45.8,32.7,30.14,ESE,109,2.0,10.0,60,0.00,,,0.00,Wunderground v.1.15,2013-04-20 07:20:00,
2013-04-20 02:30:00,45.4,31.9,30.14,SE,138,2.0,2.0,59,0.00,,,0.00,Wunderground v.1.15,2013-04-20 07:30:00,
2013-04-20 02:40:00,45.3,32.2,30.14,SE,139,2.0,2.0,60,0.00,,,0.00,Wunderground v.1.15,2013-04-20 07:40:00,
2013-04-20 02:50:00,45.2,32.1,30.14,SE,141,2.0,2.0,60,0.00,,,0.00,Wunderground v.1.15,2013-04-20 07:50:00,
2013-04-20 03:00:00,45.1,32.0,30.14,SE,142,2.0,10.0,60,0.00,,,0.00,Wunderground v.1.15,2013-04-20 08:00:00,
2013-04-20 03:10:00,44.9,32.3,30.13,SSE,150,2.0,2.0,61,0.00,,,0.00,Wunderground v.1.15,2013-04-20 08:10:00,
2013-04-20 03:20:00,44.8,32.6,30.14,SSE,150,2.0,10.0,62,0.00,,,0.00,Wunderground v.1.15,2013-04-20 08:20:00,
2013-04-20 03:30:00,44.5,32.3,30.13,SSE,150,2.0,2.0,62,0.00,,,0.00,Wunderground v.1.15,2013-04-20 08:30:00,
2013-04-20 03:40:00,44.0,32.2,30.13,SSE,150,0.0,10.0,63,0.00,,,0.00,Wunderground v.1.15,2013-04-20 08:40:00,
2013-04-20 03:50:00,43.8,32.0,30.13,SSE,150,0.0,10.0,63,0.00,,,0.00,Wunderground v.1.15,2013-04-20 08:50:00,
2013-04-20 04:00:00,43.5,32.1,30.13,SSE,150,0.0,10.0,64,0.00,,,0.00,Wunderground v.1.15,2013-04-20 09:00:00,
2013-04-20 04:10:00,43.3,31.9,30.13,SSE,150,0.0,10.0,64,0.00,,,0.00,Wunderground v.1.15,2013-04-20 09:10:00,
2013-04-20 04:20:00,43.1,31.7,30.14,SSE,150,0.0,10.0,64,0.00,,,0.00,Wunderground v.1.15,2013-04-20 09:20:00,
2013-04-20 04:30:00,43.2,31.8,30.14,SSE,150,0.0,10.0,64,0.00,,,0.00,Wunderground v.1.15,2013-04-20 09:30:00,
2013-04-20 04:40:00,43.1,31.7,30.14,SSE,150,0.0,10.0,64,0.00,,,0.00,Wunderground v.1.15,2013-04-20 09:40:00,
2013-04-20 04:50:00,42.7,32.1,30.14,SSE,150,0.0,10.0,66,0.00,,,0.00,Wunderground v.1.15,2013-04-20 09:50:00,
2013-04-20 05:00:00,42.1,31.9,30.14,SSE,150,0.0,10.0,67,0.00,,,0.00,Wunderground v.1.15,2013-04-20 10:00:00,
2013-04-20 05:10:00,42.0,32.2,30.14,SSE,150,0.0,10.0,68,0.00,,,0.00,Wunderground v.1.15,2013-04-20 10:10:00,
2013-04-20 05:20:00,42.0,32.2,30.14,SSE,150,0.0,10.0,68,0.00,,,0.00,Wunderground v.1.15,2013-04-20 10:20:00,
2013-04-20 05:30:00,42.0,31.8,30.14,SSE,150,0.0,10.0,67,0.00,,,0.00,Wunderground v.1.15,2013-04-20 10:30:00,
2013-04-20 05:40:00,41.8,32.0,30.14,SSE,150,0.0,10.0,68,0.00,,,0.00,Wunderground v.1.15,2013-04-20 10:40:00,
2013-04-20 05:50:00,41.6,32.2,30.14,SSE,150,0.0,10.0,69,0.00,,,0.00,Wunderground v.1.15,2013-04-20 10:50:00,
2013-04-20 06:00:00,41.3,32.2,30.14,SSE,149,0.0,10.0,70,0.00,,,0.00,Wunderground v.1.15,2013-04-20 11:00:00,
2013-04-20 06:10:00,41.1,32.4,30.14,SSE,149,0.0,10.0,71,0.00,,,0.00,Wunderground v.1.15,2013-04-20 11:10:00,
2013-04-20 06:20:00,40.7,32.0,30.14,SSE,149,0.0,10.0,71,0.00,,,0.00,Wunderground v.1.15,2013-04-20 11:20:00,
2013-04-20 06:30:00,40.3,32.3,30.13,SSE,149,0.0,10.0,73,0.00,,,0.00,Wunderground v.1.15,2013-04-20 11:30:00,
2013-04-20 06:40:00,40.4,32.1,30.14,SSE,149,0.0,10.0,72,0.00,,,0.00,Wunderground v.1.15,2013-04-20 11:40:00,
2013-04-20 06:50:00,40.3,32.3,30.14,SSE,149,0.0,10.0,73,0.00,,,0.00,Wunderground v.1.15,2013-04-20 11:50:00,
2013-04-20 07:00:00,40.2,32.2,30.14,SSE,149,0.0,10.0,73,0.00,,,0.00,Wunderground v.1.15,2013-04-20 12:00:00,
2013-04-20 07:10:00,39.9,32.3,30.14,SSE,149,0.0,10.0,74,0.00,,,0.00,Wunderground v.1.15,2013-04-20 12:10:00,
2013-04-20 07:20:00,40.0,32.4,30.14,SSE,149,0.0,10.0,74,0.00,,,0.00,Wunderground v.1.15,2013-04-20 12:20:00,
2013-04-20 07:30:00,40.4,32.8,30.15,SSE,149,0.0,10.0,74,0.00,,,0.00,Wunderground v.1.15,2013-04-20 12:30:00,
2013-04-20 07:40:00,41.3,33.3,30.15,SSE,149,0.0,10.0,73,0.00,,,0.00,Wunderground v.1.15,2013-04-20 12:40:00,
2013-04-20 07:50:00,42.2,33.5,30.15,SSE,149,0.0,10.0,71,0.00,,,0.00,Wunderground v.1.15,2013-04-20 12:50:00,
2013-04-20 08:00:00,43.1,33.6,30.16,SSE,149,1.0,10.0,69,0.00,,,0.00,Wunderground v.1.15,2013-04-20 13:00:00,
2013-04-20 08:10:00,44.3,34.0,30.16,SSE,149,2.0,10.0,67,0.00,,,0.00,Wunderground v.1.15,2013-04-20 13:10:00,
2013-04-20 08:20:00,45.3,35.0,30.16,SSE,149,2.0,10.0,67,0.00,,,0.00,Wunderground v.1.15,2013-04-20 13:20:00,
2013-04-20 08:30:00,46.9,34.6,30.16,SSE,157,5.0,10.0,62,0.00,,,0.00,Wunderground v.1.15,2013-04-20 13:30:00,
2013-04-20 08:40:00,48.6,35.3,30.16,SSE,161,6.0,10.0,60,0.00,,,0.00,Wunderground v.1.15,2013-04-20 13:40:00,
2013-04-20 08:50:00,50.3,34.7,30.16,South,171,7.0,10.0,55,0.00,,,0.00,Wunderground v.1.15,2013-04-20 13:50:00,
2013-04-20 09:00:00,52.0,33.4,30.17,South,181,7.0,7.0,49,0.00,,,0.00,Wunderground v.1.15,2013-04-20 14:00:00,
2013-04-20 09:10:00,53.3,34.1,30.17,South,182,7.0,11.0,48,0.00,,,0.00,Wunderground v.1.15,2013-04-20 14:10:00,
2013-04-20 09:20:00,54.1,33.8,30.17,South,178,9.0,9.0,46,0.00,,,0.00,Wunderground v.1.15,2013-04-20 14:20:00,
2013-04-20 09:30:00,55.0,33.5,30.17,South,181,9.0,9.0,44,0.00,,,0.00,Wunderground v.1.15,2013-04-20 14:30:00,
2013-04-20 09:40:00,56.1,32.7,30.16,SSE,160,11.0,12.0,41,0.00,,,0.00,Wunderground v.1.15,2013-04-20 14:40:00,
2013-04-20 09:50:00,57.3,33.8,30.16,South,186,12.0,12.0,41,0.00,,,0.00,Wunderground v.1.15,2013-04-20 14:50:00,
2013-04-20 10:00:00,58.0,32.5,30.17,South,177,11.0,16.0,38,0.00,,,0.00,Wunderground v.1.15,2013-04-20 15:00:00,
2013-04-20 10:10:00,58.6,31.7,30.16,SSE,168,13.0,17.0,36,0.00,,,0.00,Wunderground v.1.15,2013-04-20 15:10:00,
2013-04-20 10:20:00,59.3,31.6,30.16,SSE,161,13.0,13.0,35,0.00,,,0.00,Wunderground v.1.15,2013-04-20 15:20:00,
2013-04-20 10:30:00,60.1,32.3,30.16,South,180,12.0,12.0,35,0.00,,,0.00,Wunderground v.1.15,2013-04-20 15:30:00,
2013-04-20 10:40:00,60.7,31.4,30.16,SSE,150,12.0,13.0,33,0.00,,,0.00,Wunderground v.1.15,2013-04-20 15:40:00,
2013-04-20 10:50:00,61.5,32.1,30.16,SSE,147,14.0,14.0,33,0.00,,,0.00,Wunderground v.1.15,2013-04-20 15:50:00,
2013-04-20 11:00:00,61.8,30.8,30.16,SSE,161,15.0,15.0,31,0.00,,,0.00,Wunderground v.1.15,2013-04-20 16:00:00,
2013-04-20 11:10:00,62.6,31.5,30.15,SSE,167,13.0,13.0,31,0.00,,,0.00,Wunderground v.1.15,2013-04-20 16:10:00,
2013-04-20 11:20:00,62.6,32.3,30.15,SSE,167,14.0,14.0,32,0.00,,,0.00,Wunderground v.1.15,2013-04-20 16:20:00,
2013-04-20 11:30:00,63.0,30.2,30.15,SSE,151,14.0,14.0,29,0.00,,,0.00,Wunderground v.1.15,2013-04-20 16:30:00,
2013-04-20 11:40:00,63.9,32.6,30.14,SE,146,13.0,15.0,31,0.00,,,0.00,Wunderground v.1.15,2013-04-20 16:40:00,
2013-04-20 11:50:00,64.5,32.4,30.14,SSE,148,14.0,14.0,30,0.00,,,0.00,Wunderground v.1.15,2013-04-20 16:50:00,
2013-04-20 12:00:00,64.9,31.9,30.14,SSE,166,13.0,16.0,29,0.00,,,0.00,Wunderground v.1.15,2013-04-20 17:00:00,
2013-04-20 12:10:00,65.3,32.2,30.12,SSE,168,14.0,14.0,29,0.00,,,0.00,Wunderground v.1.15,2013-04-20 17:10:00,
2013-04-20 12:20:00,65.6,31.6,30.11,SSE,151,14.0,14.0,28,0.00,,,0.00,Wunderground v.1.15,2013-04-20 17:20:00,
2013-04-20 12:30:00,66.2,33.0,30.11,South,178,13.0,13.0,29,0.00,,,0.00,Wunderground v.1.15,2013-04-20 17:30:00,
2013-04-20 12:40:00,67.0,32.8,30.10,South,190,10.0,17.0,28,0.00,,,0.00,Wunderground v.1.15,2013-04-20 17:40:00,
2013-04-20 12:50:00,66.8,32.6,30.09,SSE,159,12.0,15.0,28,0.00,,,0.00,Wunderground v.1.15,2013-04-20 17:50:00,
2013-04-20 13:00:00,67.0,31.9,30.08,SE,141,14.0,14.0,27,0.00,,,0.00,Wunderground v.1.15,2013-04-20 18:00:00,
2013-04-20 13:10:00,68.3,33.9,30.08,SSE,150,13.0,13.0,28,0.00,,,0.00,Wunderground v.1.15,2013-04-20 18:10:00,
2013-04-20 13:20:00,68.0,33.7,30.06,SE,146,14.0,19.0,28,0.00,,,0.00,Wunderground v.1.15,2013-04-20 18:20:00,
2013-04-20 13:30:00,68.0,32.7,30.06,SSE,161,15.0,19.0,27,0.00,,,0.00,Wunderground v.1.15,2013-04-20 18:30:00,
2013-04-20 13:40:00,68.5,33.2,30.05,SSE,159,14.0,14.0,27,0.00,,,0.00,Wunderground v.1.15,2013-04-20 18:40:00,
2013-04-20 13:50:00,69.0,32.7,30.04,SSE,147,14.0,14.0,26,0.00,,,0.00,Wunderground v.1.15,2013-04-20 18:50:00,
2013-04-20 14:00:00,69.8,34.3,30.04,South,180,13.0,14.0,27,0.00,,,0.00,Wunderground v.1.15,2013-04-20 19:00:00,
2013-04-20 14:10:00,69.7,32.3,30.03,SSE,159,15.0,15.0,25,0.00,,,0.00,Wunderground v.1.15,2013-04-20 19:10:00,
2013-04-20 14:20:00,69.9,33.4,30.02,SSE,155,12.0,12.0,26,0.00,,,0.00,Wunderground v.1.15,2013-04-20 19:20:00,
2013-04-20 14:30:00,70.3,32.8,30.02,SSE,163,15.0,15.0,25,0.00,,,0.00,Wunderground v.1.15,2013-04-20 19:30:00,
2013-04-20 14:40:00,70.9,36.1,30.01,SSE,158,15.0,15.0,28,0.00,,,0.00,Wunderground v.1.15,2013-04-20 19:40:00,
2013-04-20 14:50:00,70.7,34.1,30.00,South,181,16.0,16.0,26,0.00,,,0.00,Wunderground v.1.15,2013-04-20 19:50:00,
2013-04-20 15:00:00,70.9,32.3,29.99,SE,135,14.0,14.0,24,0.00,,,0.00,Wunderground v.1.15,2013-04-20 20:00:00,
2013-04-20 15:10:00,71.0,34.4,29.99,SSE,159,18.0,18.0,26,0.00,,,0.00,Wunderground v.1.15,2013-04-20 20:10:00,
2013-04-20 15:20:00,71.2,34.5,29.98,South,175,14.0,17.0,26,0.00,,,0.00,Wunderground v.1.15,2013-04-20 20:20:00,
2013-04-20 15:30:00,71.5,33.8,29.97,SSE,159,16.0,16.0,25,0.00,,,0.00,Wunderground v.1.15,2013-04-20 20:30:00,
2013-04-20 15:40:00,71.6,34.9,29.97,South,174,15.0,15.0,26,0.00,,,0.00,Wunderground v.1.15,2013-04-20 20:40:00,
2013-04-20 15:50:00,71.9,33.1,29.96,South,173,16.0,16.0,24,0.00,,,0.00,Wunderground v.1.15,2013-04-20 20:50:00,
2013-04-20 16:00:00,72.4,33.5,29.95,SE,126,15.0,15.0,24,0.00,,,0.00,Wunderground v.1.15,2013-04-20 21:00:00,
2013-04-20 16:10:00,72.0,33.2,29.94,SSE,159,16.0,16.0,24,0.00,,,0.00,Wunderground v.1.15,2013-04-20 21:10:00,
2013-04-20 16:20:00,72.4,33.5,29.94,SSE,166,13.0,13.0,24,0.00,,,0.00,Wunderground v.1.15,2013-04-20 21:20:00,
2013-04-20 16:30:00,72.7,33.8,29.94,SE,127,14.0,18.0,24,0.00,,,0.00,Wunderground v.1.15,2013-04-20 21:30:00,
2013-04-20 16:40:00,72.5,33.6,29.93,SSE,151,17.0,17.0,24,0.00,,,0.00,Wunderground v.1.15,2013-04-20 21:40:00,
2013-04-20 16:50:00,72.3,33.5,29.93,SE,130,15.0,17.0,24,0.00,,,0.00,Wunderground v.1.15,2013-04-20 21:50:00,
2013-04-20 17:00:00,72.3,34.5,29.93,SSE,149,15.0,15.0,25,0.00,,,0.00,Wunderground v.1.15,2013-04-20 22:00:00,
2013-04-20 17:10:00,72.5,33.6,29.92,SSE,153,14.0,14.0,24,0.00,,,0.00,Wunderground v.1.15,2013-04-20 22:10:00,
2013-04-20 17:20:00,72.4,33.5,29.92,South,175,14.0,15.0,24,0.00,,,0.00,Wunderground v.1.15,2013-04-20 22:20:00,
2013-04-20 17:30:00,72.5,35.6,29.92,SE,146,14.0,14.0,26,0.00,,,0.00,Wunderground v.1.15,2013-04-20 22:30:00,
2013-04-20 17:40:00,72.8,34.9,29.91,SSE,155,13.0,14.0,25,0.00,,,0.00,Wunderground v.1.15,2013-04-20 22:40:00,
2013-04-20 17:50:00,72.7,33.8,29.91,SSE,149,14.0,15.0,24,0.00,,,0.00,Wunderground v.1.15,2013-04-20 22:50:00,
2013-04-20 18:00:00,72.0,33.2,29.91,SSE,167,17.0,19.0,24,0.00,,,0.00,Wunderground v.1.15,2013-04-20 23:00:00,
2013-04-20 18:10:00,71.8,32.0,29.91,SSE,150,15.0,15.0,23,0.00,,,0.00,Wunderground v.1.15,2013-04-20 23:10:00,
2013-04-20 18:20:00,71.6,32.9,29.91,SSE,166,16.0,16.0,24,0.00,,,0.00,Wunderground v.1.15,2013-04-20 23:20:00,
2013-04-20 18:30:00,71.3,31.6,29.91,SSE,153,13.0,19.0,23,0.00,,,0.00,Wunderground v.1.15,2013-04-20 23:30:00,
2013-04-20 18:40:00,70.9,31.2,29.91,SSE,152,14.0,17.0,23,0.00,,,0.00,Wunderground v.1.15,2013-04-20 23:40:00,
2013-04-20 18:50:00,70.5,31.9,29.91,SSE,147,16.0,16.0,24,0.00,,,0.00,Wunderground v.1.15,2013-04-20 23:50:00,
2013-04-20 19:00:00,70.0,31.5,29.91,SE,144,14.0,14.0,24,0.00,,,0.00,Wunderground v.1.15,2013-04-21 00:00:00,
2013-04-20 19:10:00,69.7,32.3,29.92,SSE,164,14.0,14.0,25,0.00,,,0.00,Wunderground v.1.15,2013-04-21 00:10:00,
2013-04-20 19:20:00,69.2,30.8,29.91,SE,139,12.0,13.0,24,0.00,,,0.00,Wunderground v.1.15,2013-04-21 00:20:00,
2013-04-20 19:30:00,68.7,31.4,29.92,SSE,151,14.0,14.0,25,0.00,,,0.00,Wunderground v.1.15,2013-04-21 00:30:00,
2013-04-20 19:40:00,68.0,31.8,29.92,SSE,152,11.0,12.0,26,0.00,,,0.00,Wunderground v.1.15,2013-04-21 00:40:00,
2013-04-20 19:50:00,67.6,30.5,29.92,SE,140,11.0,15.0,25,0.00,,,0.00,Wunderground v.1.15,2013-04-21 00:50:00,
2013-04-20 20:00:00,67.2,31.1,29.92,SE,138,11.0,15.0,26,0.00,,,0.00,Wunderground v.1.15,2013-04-21 01:00:00,
2013-04-20 20:10:00,66.7,30.7,29.92,SE,146,12.0,12.0,26,0.00,,,0.00,Wunderground v.1.15,2013-04-21 01:10:00,
2013-04-20 20:20:00,66.1,30.2,29.93,SE,142,11.0,11.0,26,0.00,,,0.00,Wunderground v.1.15,2013-04-21 01:20:00,
2013-04-20 20:30:00,65.6,31.6,29.94,SE,140,10.0,14.0,28,0.00,,,0.00,Wunderground v.1.15,2013-04-21 01:30:00,
2013-04-20 20:40:00,64.8,30.9,29.94,SE,139,9.0,10.0,28,0.00,,,0.00,Wunderground v.1.15,2013-04-21 01:40:00,
2013-04-20 20:50:00,64.4,30.6,29.94,SE,140,9.0,10.0,28,0.00,,,0.00,Wunderground v.1.15,2013-04-21 01:50:00,
2013-04-20 21:00:00,63.8,31.7,29.95,SE,136,8.0,8.0,30,0.00,,,0.00,Wunderground v.1.15,2013-04-21 02:00:00,
2013-04-20 21:10:00,63.3,31.3,29.95,ESE,122,8.0,10.0,30,0.00,,,0.00,Wunderground v.1.15,2013-04-21 02:10:00,
2013-04-20 21:20:00,63.0,31.9,29.95,SE,138,9.0,10.0,31,0.00,,,0.00,Wunderground v.1.15,2013-04-21 02:20:00,
2013-04-20 21:30:00,62.5,32.2,29.96,ESE,122,8.0,11.0,32,0.00,,,0.00,Wunderground v.1.15,2013-04-21 02:30:00,
2013-04-20 21:40:00,62.3,32.0,29.96,SE,134,9.0,11.0,32,0.00,,,0.00,Wunderground v.1.15,2013-04-21 02:40:00,
2013-04-20 21:50:00,62.0,31.8,29.97,SE,136,10.0,10.0,32,0.00,,,0.00,Wunderground v.1.15,2013-04-21 02:50:00,
2013-04-20 22:00:00,61.9,32.5,29.98,SE,137,10.0,10.0,33,0.00,,,0.00,Wunderground v.1.15,2013-04-21 03:00:00,
2013-04-20 22:10:00,61.5,32.1,29.98,SE,126,8.0,8.0,33,0.00,,,0.00,Wunderground v.1.15,2013-04-21 03:10:00,
2013-04-20 22:20:00,60.7,32.9,29.98,ESE,121,4.0,10.0,35,0.00,,,0.00,Wunderground v.1.15,2013-04-21 03:20:00,
2013-04-20 22:30:00,60.0,32.2,29.98,ESE,123,7.0,10.0,35,0.00,,,0.00,Wunderground v.1.15,2013-04-21 03:30:00,
2013-04-20 22:40:00,59.9,32.9,29.98,SE,126,8.0,15.0,36,0.00,,,0.00,Wunderground v.1.15,2013-04-21 03:40:00,
2013-04-20 22:50:00,59.6,32.6,29.98,SE,124,7.0,7.0,36,0.00,,,0.00,Wunderground v.1.15,2013-04-21 03:50:00,
2013-04-20 23:00:00,59.2,32.9,29.98,SE,137,7.0,10.0,37,0.00,,,0.00,Wunderground v.1.15,2013-04-21 04:00:00,
2013-04-20 23:10:00,59.5,32.5,29.98,SE,136,9.0,11.0,36,0.00,,,0.00,Wunderground v.1.15,2013-04-21 04:10:00,
2013-04-20 23:20:00,59.7,32.0,29.99,SE,143,10.0,11.0,35,0.00,,,0.00,Wunderground v.1.15,2013-04-21 04:20:00,
2013-04-20 23:30:00,59.8,32.1,29.99,ESE,120,11.0,11.0,35,0.00,,,0.00,Wunderground v.1.15,2013-04-21 04:30:00,
2013-04-20 23:40:00,59.6,32.6,29.99,SSE,157,11.0,18.0,36,0.00,,,0.00,Wunderground v.1.15,2013-04-21 04:40:00,
2013-04-20 23:50:00,59.6,33.9,29.98,SSE,148,14.0,19.0,38,0.00,,,0.00,Wunderground v.1.15,2013-04-21 04:50:00,